Time;durP1;ratioP1;P1;durP2;ratioP2;P2;SDS_P1;SDS_P2;PMS_P1;PMS_P2;Temp;Humidity;BMP_temperature;BMP_pressure;BME280_temperature;BME280_humidity;BME280_pressure;Samples;Min_cycle;Max_cycle;Signal;HPM_P1;HPM_P2
2022/04/25 00:02:11;;;;;;;7.60;4.50;;;;;;;-142.75;100.00;77363.66;5008118;28;20028;-68
2022/04/25 00:04:36;;;;;;;9.48;4.85;;;;;;;-142.75;100.00;77369.56;5007066;28;20411;-67
2022/04/25 00:07:01;;;;;;;9.40;4.97;;;;;;;-142.75;100.00;77363.66;5008917;28;20138;-68
2022/04/25 00:09:27;;;;;;;10.38;4.80;;;;;;;-142.75;100.00;77369.56;5006984;28;20411;-68
2022/04/25 00:11:52;;;;;;;12.25;4.95;;;;;;;-142.75;100.00;77379.41;5008497;28;20103;-68
2022/04/25 00:14:17;;;;;;;10.55;5.00;;;;;;;-142.75;100.00;77385.31;5008266;28;20395;-68
2022/04/25 00:16:43;;;;;;;13.75;4.90;;;;;;;-142.75;100.00;77385.31;5008404;28;20029;-67
2022/04/25 00:19:08;;;;;;;12.15;5.18;;;;;;;-142.75;100.00;77397.13;5008139;28;20022;-68
2022/04/25 00:21:34;;;;;;;12.15;5.30;;;;;;;-142.75;100.00;77401.06;5008415;28;20023;-68
2022/04/25 00:23:59;;;;;;;9.25;5.22;;;;;;;-142.75;100.00;77403.03;4990701;28;20036;-68
2022/04/25 00:26:25;;;;;;;10.43;5.93;;;;;;;-142.75;100.00;77397.13;5007383;28;20512;-67
2022/04/25 00:28:50;;;;;;;8.23;4.75;;;;;;;-142.75;100.00;77403.03;5007933;28;20030;-68
2022/04/25 00:31:15;;;;;;;10.15;5.45;;;;;;;-142.75;100.00;77408.94;5011596;28;20398;-67
2022/04/25 00:33:41;;;;;;;9.57;5.30;;;;;;;-142.75;100.00;77420.75;5012201;28;20031;-67
2022/04/25 00:36:06;;;;;;;10.07;5.25;;;;;;;-142.75;100.00;77408.94;5012645;28;20030;-67
2022/04/25 00:38:31;;;;;;;9.10;5.18;;;;;;;-142.75;100.00;77434.53;5011801;28;20381;-67
2022/04/25 00:40:57;;;;;;;10.07;5.47;;;;;;;-142.75;100.00;77436.50;5010962;28;20037;-68
2022/04/25 00:43:22;;;;;;;8.30;5.10;;;;;;;-142.75;100.00;77432.56;5011722;28;20766;-68
2022/04/25 00:45:47;;;;;;;9.30;5.93;;;;;;;-142.75;100.00;77436.50;5010625;28;20273;-68
2022/04/25 00:48:13;;;;;;;11.77;5.47;;;;;;;-142.75;100.00;77438.47;5011848;28;20030;-68
2022/04/25 00:50:39;;;;;;;9.48;5.03;;;;;;;-142.75;100.00;77442.41;5011684;28;20025;-68
2022/04/25 00:53:05;;;;;;;9.75;5.35;;;;;;;-142.75;100.00;77442.41;5010397;28;20034;-68
2022/04/25 00:55:30;;;;;;;12.27;5.67;;;;;;;-142.75;100.00;77448.34;5010841;28;20026;-68
2022/04/25 00:57:57;;;;;;;10.18;5.68;;;;;;;-142.75;100.00;77444.38;5010731;28;20024;-68
2022/04/25 01:00:23;;;;;;;11.30;5.83;;;;;;;-142.75;100.00;77432.56;5011649;28;20139;-68
2022/04/25 01:02:49;;;;;;;10.05;6.05;;;;;;;-142.75;100.00;77434.53;5009897;28;20067;-68
2022/04/25 01:05:14;;;;;;;10.98;5.97;;;;;;;-142.75;100.00;77428.63;5010438;28;20108;-67
2022/04/25 01:07:39;;;;;;;12.60;6.15;;;;;;;-142.75;100.00;77430.59;5011879;28;20033;-67
2022/04/25 01:10:07;;;;;;;14.32;6.03;;;;;;;-142.75;100.00;77426.66;5010964;28;20037;-67
2022/04/25 01:12:32;;;;;;;9.90;6.20;;;;;;;-142.75;100.00;77426.66;5011520;28;20025;-68
2022/04/25 01:15:00;;;;;;;10.27;5.80;;;;;;;-142.75;100.00;77416.81;5011439;28;20398;-67
2022/04/25 01:17:26;;;;;;;12.03;6.43;;;;;;;-142.75;100.00;77408.94;5011384;28;20028;-68
2022/04/25 01:19:52;;;;;;;10.18;6.05;;;;;;;-142.75;100.00;77405.00;5011044;28;20017;-67
2022/04/25 01:22:21;;;;;;;14.07;6.38;;;;;;;-142.75;100.00;77405.00;5011396;28;20041;-67
2022/04/25 01:27:32;;;;;;;9.67;5.40;;;;;;;-142.75;100.00;77391.22;5011857;28;20044;-67
2022/04/25 01:29:57;;;;;;;10.75;5.97;;;;;;;-142.75;100.00;77395.16;5011097;28;20050;-68
2022/04/25 01:32:23;;;;;;;10.73;6.90;;;;;;;-142.75;100.00;77387.28;5011225;28;20053;-67
2022/04/25 01:34:49;;;;;;;11.00;6.37;;;;;;;-142.75;100.00;77385.31;5010887;28;20396;-68
2022/04/25 01:37:16;;;;;;;11.00;6.07;;;;;;;-142.75;100.00;77385.31;5009875;28;20034;-68
2022/04/25 01:39:46;;;;;;;14.50;7.00;;;;;;;-142.75;100.00;77385.31;5009406;28;20406;-67
2022/04/25 01:42:12;;;;;;;11.70;5.63;;;;;;;-142.75;100.00;77385.31;5010705;28;20044;-67
2022/04/25 01:44:38;;;;;;;;;;;;;;;-142.75;100.00;77397.13;5057361;22;20068;-68
2022/04/25 01:47:04;;;;;;;8.67;5.73;;;;;;;-142.75;100.00;77393.19;5034366;28;20452;-65
2022/04/25 01:49:29;;;;;;;13.63;6.23;;;;;;;-142.75;100.00;77389.25;5041834;28;20458;-67
2022/04/25 01:51:55;;;;;;;12.45;6.32;;;;;;;-142.75;100.00;77385.31;5050439;28;20086;-68
2022/04/25 01:54:32;;;;;;;13.43;6.68;;;;;;;-142.75;100.00;77393.19;5050218;28;20078;-68
2022/04/25 01:56:58;;;;;;;12.25;6.05;;;;;;;-142.75;100.00;77381.38;5050609;28;20367;-67
2022/04/25 01:59:24;;;;;;;;;;;;;;;-142.75;100.00;77389.25;5046211;28;20474;-67
2022/04/25 02:01:50;;;;;;;12.87;5.77;;;;;;;-142.75;100.00;77373.50;5049801;28;19923;-69
2022/04/25 02:04:15;;;;;;;13.43;6.25;;;;;;;-142.75;100.00;77377.44;5034075;28;20029;-66
2022/04/25 02:06:41;;;;;;;13.63;6.30;;;;;;;-142.75;100.00;77377.44;5030969;28;20442;-68
2022/04/25 02:09:06;;;;;;;12.30;6.47;;;;;;;-142.75;100.00;77381.38;5030680;28;20053;-68
2022/04/25 02:11:31;;;;;;;14.68;6.65;;;;;;;-142.75;100.00;77373.50;5048703;28;20462;-68
2022/04/25 02:13:58;;;;;;;11.13;5.97;;;;;;;-142.75;100.00;77375.47;5036578;28;20522;-68
2022/04/25 02:16:23;;;;;;;;;;;;;;;-142.75;100.00;77377.44;5039955;28;20028;-69
2022/04/25 02:18:50;;;;;;;11.03;6.03;;;;;;;-142.75;100.00;77377.44;5032999;28;19999;-68
2022/04/25 02:21:15;;;;;;;11.40;5.80;;;;;;;-142.75;100.00;77369.56;5030031;28;20033;-68
2022/04/25 02:23:41;;;;;;;14.90;6.63;;;;;;;-142.75;100.00;77361.69;5042610;28;20036;-67
2022/04/25 02:26:08;;;;;;;12.23;7.15;;;;;;;-142.75;100.00;77365.63;5030259;28;20036;-67
2022/04/25 02:28:34;;;;;;;11.30;7.17;;;;;;;-142.75;100.00;77359.72;5047260;28;20025;-66
2022/04/25 02:30:59;;;;;;;;;;;;;;;-142.75;100.00;77359.72;5050246;28;20025;-68
2022/04/25 02:33:25;;;;;;;16.57;7.70;;;;;;;-142.75;100.00;77359.72;5048179;28;19919;-68
2022/04/25 02:35:50;;;;;;;11.27;6.03;;;;;;;-142.75;100.00;77357.75;5049786;28;20049;-68
2022/04/25 02:38:15;;;;;;;11.70;6.00;;;;;;;-142.75;100.00;77365.63;5049568;28;20036;-70
2022/04/25 02:40:41;;;;;;;17.60;6.80;;;;;;;-142.75;100.00;77367.59;5033532;28;20321;-67
2022/04/25 02:43:06;;;;;;;13.73;6.30;;;;;;;-142.75;100.00;77357.75;5028199;28;20021;-66
2022/04/25 02:45:31;;;;;;;11.43;5.73;;;;;;;-142.75;100.00;77345.94;5029548;28;20690;-67
2022/04/25 02:47:56;;;;;;;9.02;5.75;;;;;;;-142.75;100.00;77349.88;5035211;28;20268;-68
2022/04/25 02:50:22;;;;;;;11.73;5.83;;;;;;;-142.75;100.00;77345.94;5029258;28;20033;-68
2022/04/25 02:52:49;;;;;;;12.65;6.57;;;;;;;-142.75;100.00;77349.88;5028665;28;20280;-68
2022/04/25 02:55:14;;;;;;;10.00;5.60;;;;;;;-142.75;100.00;77343.97;5029322;28;20048;-68
2022/04/25 02:57:39;;;;;;;10.02;5.93;;;;;;;-142.75;100.00;77338.06;5043450;28;20486;-68
2022/04/25 03:00:06;;;;;;;13.43;5.93;;;;;;;-142.75;100.00;77336.09;5049311;28;20059;-68
2022/04/25 03:02:32;;;;;;;13.47;6.30;;;;;;;-142.75;100.00;77330.19;5046011;28;20684;-66
2022/04/25 03:04:57;;;;;;;10.57;5.97;;;;;;;-142.75;100.00;77326.25;5027920;28;20033;-68
2022/04/25 03:07:22;;;;;;;10.77;5.50;;;;;;;-142.75;100.00;77322.31;5029611;28;20091;-69
2022/04/25 03:09:48;;;;;;;11.97;5.93;;;;;;;-142.75;100.00;77314.44;5028840;28;20025;-68
2022/04/25 03:12:13;;;;;;;10.80;6.47;;;;;;;-142.75;100.00;77312.47;5028067;28;20380;-69
2022/04/25 03:14:38;;;;;;;12.40;6.22;;;;;;;-142.75;100.00;77316.41;5029039;28;20798;-68
2022/04/25 03:17:03;;;;;;;13.43;6.03;;;;;;;-142.75;100.00;77314.44;5027707;28;20023;-68
2022/04/25 03:19:29;;;;;;;10.77;5.32;;;;;;;-142.75;100.00;77306.56;5028703;28;20155;-68
2022/04/25 03:21:54;;;;;;;10.98;5.90;;;;;;;-142.75;100.00;77306.56;5027679;28;20512;-68
2022/04/25 03:24:19;;;;;;;14.13;6.65;;;;;;;-142.75;100.00;77312.47;5028777;28;20026;-67
2022/04/25 03:26:44;;;;;;;11.63;5.85;;;;;;;-142.75;100.00;77304.59;5029067;28;20033;-67
2022/04/25 03:29:11;;;;;;;11.00;6.43;;;;;;;-142.75;100.00;77300.66;5036970;28;20028;-67
2022/04/25 03:31:36;;;;;;;13.70;6.23;;;;;;;-142.75;100.00;77298.69;5048601;28;20037;-68
2022/04/25 03:34:02;;;;;;;11.77;6.00;;;;;;;-142.75;100.00;77294.75;5039884;28;20021;-68
2022/04/25 03:36:27;;;;;;;11.68;5.35;;;;;;;-142.75;100.00;77296.72;5029143;28;20036;-69
2022/04/25 03:38:53;;;;;;;15.35;6.93;;;;;;;-142.75;100.00;77302.63;5040601;28;20115;-68
2022/04/25 03:41:20;;;;;;;14.00;6.25;;;;;;;-142.75;100.00;77302.63;5029125;28;20143;-68
2022/04/25 03:43:45;;;;;;;17.60;7.00;;;;;;;-142.75;100.00;77298.69;5043608;28;20029;-69
2022/04/25 03:46:12;;;;;;;13.07;6.70;;;;;;;-142.75;100.00;77298.69;5035532;28;20036;-69
2022/04/25 03:48:40;;;;;;;11.27;5.75;;;;;;;-142.75;100.00;77298.69;5026893;28;20029;-68
2022/04/25 03:51:05;;;;;;;12.30;6.33;;;;;;;-142.75;100.00;77306.56;5041806;28;20044;-68
2022/04/25 03:53:30;;;;;;;10.17;5.83;;;;;;;-142.75;100.00;77302.63;5030433;28;20026;-68
2022/04/25 03:58:40;;;;;;;11.10;5.50;;;;;;;-142.75;100.00;77300.66;5034902;28;20032;-68
2022/04/25 04:01:05;;;;;;;11.25;5.38;;;;;;;-142.75;100.00;77308.53;5028570;28;20029;-68
2022/04/25 04:03:34;;;;;;;10.15;5.07;;;;;;;-142.75;100.00;77310.50;5026215;28;20017;-69
2022/04/25 04:05:59;;;;;;;9.37;5.60;;;;;;;-142.75;100.00;77310.50;5027467;28;20022;-68
2022/04/25 04:08:24;;;;;;;11.67;4.40;;;;;;;-142.75;100.00;77306.56;5033086;28;20028;-68
2022/04/25 04:10:50;;;;;;;6.90;4.07;;;;;;;-142.75;100.00;77298.69;5045760;28;20917;-68
2022/04/25 04:13:15;;;;;;;10.05;4.00;;;;;;;-142.75;100.00;77298.69;5026987;28;20034;-68
2022/04/25 04:15:40;;;;;;;8.25;3.97;;;;;;;-142.75;100.00;77306.56;5028236;28;20025;-68
2022/04/25 04:18:06;;;;;;;8.55;4.88;;;;;;;-142.75;100.00;77304.59;5029335;28;20083;-67
2022/04/25 04:20:32;;;;;;;8.10;4.20;;;;;;;-142.75;100.00;77322.31;5047690;28;20029;-68
2022/04/25 04:22:57;;;;;;;6.80;3.40;;;;;;;-142.75;100.00;77318.38;5047839;28;20044;-67
2022/04/25 04:25:23;;;;;;;6.68;3.30;;;;;;;-142.75;100.00;77326.25;5039272;28;20040;-69
2022/04/25 04:27:49;;;;;;;6.97;3.97;;;;;;;-142.75;100.00;77322.31;5048137;28;20032;-69
2022/04/25 04:30:15;;;;;;;6.40;4.27;;;;;;;-142.75;100.00;77338.06;5047697;28;20275;-68
2022/04/25 04:32:41;;;;;;;7.25;3.92;;;;;;;-142.75;100.00;77342.00;5046425;28;20500;-68
2022/04/25 04:35:09;;;;;;;5.50;3.57;;;;;;;-142.75;100.00;77338.06;5047726;28;20032;-69
2022/04/25 04:37:34;;;;;;;5.83;3.43;;;;;;;-142.75;100.00;77353.81;5048072;28;20490;-70
2022/04/25 04:42:44;;;;;;;5.57;3.33;;;;;;;-142.75;100.00;77359.72;5027246;28;20184;-66
2022/04/25 04:45:13;;;;;;;5.43;3.40;;;;;;;-142.75;100.00;77357.75;5032151;28;20096;-68
2022/04/25 04:47:40;;;;;;;4.63;2.73;;;;;;;-142.75;100.00;77355.78;5047601;28;20652;-68
2022/04/25 04:50:14;;;;;;;5.23;3.10;;;;;;;-142.75;100.00;77353.81;5047274;28;20033;-68
2022/04/25 04:52:40;;;;;;;5.90;3.37;;;;;;;-142.75;100.00;77361.69;5028320;28;20025;-68
2022/04/25 04:55:06;;;;;;;;;;;;;;;-142.75;100.00;77367.59;5028228;28;20029;-68
2022/04/25 04:57:31;;;;;;;6.97;3.97;;;;;;;-142.75;100.00;77369.56;5036410;28;19917;-68
2022/04/25 04:59:56;;;;;;;5.37;3.30;;;;;;;-142.75;100.00;77371.53;5027667;28;20025;-69
2022/04/25 05:02:21;;;;;;;7.72;4.45;;;;;;;-142.75;100.00;77369.56;5026705;28;20040;-67
2022/04/25 05:04:47;;;;;;;6.82;4.05;;;;;;;-142.75;100.00;77355.78;5026125;28;20060;-68
2022/04/25 05:07:12;;;;;;;8.20;4.15;;;;;;;-142.75;100.00;77357.75;5027891;28;20394;-68
2022/04/25 05:09:37;;;;;;;6.88;4.35;;;;;;;-142.75;100.00;77349.88;5027183;28;20466;-68
2022/04/25 05:12:03;;;;;;;9.07;4.65;;;;;;;-142.75;100.00;77343.97;5036318;28;20026;-67
2022/04/25 05:14:28;;;;;;;6.95;3.88;;;;;;;-142.75;100.00;77342.00;5027517;28;20023;-68
2022/04/25 05:16:54;;;;;;;7.60;4.80;;;;;;;-142.75;100.00;77330.19;5029146;28;20120;-69
2022/04/25 05:19:20;;;;;;;8.73;4.47;;;;;;;-142.75;100.00;77334.13;5030889;28;20280;-69
2022/04/25 05:21:46;;;;;;;10.07;5.00;;;;;;;-142.75;100.00;77322.31;5031086;28;20311;-69
2022/04/25 05:24:11;;;;;;;6.68;4.40;;;;;;;-142.75;100.00;77322.31;5029852;28;20677;-66
2022/04/25 05:26:36;;;;;;;8.38;4.43;;;;;;;-142.75;100.00;77320.34;5030108;28;20120;-68
2022/04/25 05:29:02;;;;;;;10.27;5.82;;;;;;;-142.75;100.00;77320.34;5034216;28;20501;-68
2022/04/25 05:31:27;;;;;;;10.88;6.00;;;;;;;-142.75;100.00;77312.47;5032291;28;20025;-68
2022/04/25 05:33:53;;;;;;;16.90;6.38;;;;;;;-142.75;100.00;77312.47;5030915;28;20383;-68
2022/04/25 05:36:18;;;;;;;11.02;5.65;;;;;;;-142.75;100.00;77296.72;5031014;28;20030;-68
2022/04/25 05:38:43;;;;;;;12.38;6.72;;;;;;;-142.75;100.00;77310.50;5031021;28;20467;-68
2022/04/25 05:41:09;;;;;;;11.43;6.20;;;;;;;-142.75;100.00;77302.63;5030853;28;20494;-67
2022/04/25 05:43:36;;;;;;;15.73;6.55;;;;;;;-142.75;100.00;77302.63;5030582;28;20361;-67
2022/04/25 05:46:02;;;;;;;10.73;6.28;;;;;;;-142.75;100.00;77294.75;5030795;28;20483;-67
2022/04/25 05:53:57;;;;;;;16.60;7.20;;;;;;;-142.75;100.00;77284.91;5050378;28;20086;-67
2022/04/25 05:56:22;;;;;;;15.05;7.68;;;;;;;-142.75;100.00;77290.81;5050447;28;20025;-69
2022/04/25 05:58:47;;;;;;;18.33;8.57;;;;;;;-142.75;100.00;77308.53;5048985;28;20021;-68
2022/04/25 06:01:12;;;;;;;11.77;7.97;;;;;;;-142.75;100.00;77312.47;5049435;28;20263;-68
2022/04/25 06:03:38;;;;;;;14.90;8.60;;;;;;;-142.75;100.00;77310.50;5049200;28;20031;-68
2022/04/25 06:06:03;;;;;;;14.38;8.60;;;;;;;-142.75;100.00;77320.34;5049285;28;20762;-68
2022/04/25 06:08:29;;;;;;;17.92;9.13;;;;;;;-142.75;100.00;77318.38;5049221;28;20608;-69
2022/04/25 06:10:54;;;;;;;17.40;8.80;;;;;;;-142.75;100.00;77322.31;5049184;28;20230;-67
2022/04/25 06:13:19;;;;;;;15.13;8.27;;;;;;;-142.75;100.00;77326.25;5047670;28;20037;-68
2022/04/25 06:15:45;;;;;;;18.20;8.77;;;;;;;-142.75;100.00;77314.44;5047356;28;20064;-67
2022/04/25 06:18:10;;;;;;;18.63;9.23;;;;;;;-142.75;100.00;77322.31;5049005;28;20449;-67
2022/04/25 06:20:37;;;;;;;19.05;8.48;;;;;;;-142.75;100.00;77326.25;5048560;28;20468;-68
2022/04/25 06:23:02;;;;;;;16.55;9.35;;;;;;;-142.75;100.00;77343.97;5049003;28;20513;-68
2022/04/25 06:25:29;;;;;;;15.98;8.80;;;;;;;-142.75;100.00;77349.88;5046898;28;20048;-67
2022/04/25 06:27:57;;;;;;;16.83;9.65;;;;;;;-142.75;100.00;77355.78;5029195;28;20036;-67
2022/04/25 06:30:23;;;;;;;16.75;8.50;;;;;;;-142.75;100.00;77342.00;5028634;28;20029;-67
2022/04/25 06:32:50;;;;;;;15.53;9.30;;;;;;;-142.75;100.00;77342.00;5028886;28;20356;-68
2022/04/25 06:35:15;;;;;;;;;;;;;;;-142.75;100.00;77338.06;5029196;28;20045;-68
2022/04/25 06:37:40;;;;;;;14.97;8.70;;;;;;;-142.75;100.00;77334.13;5029281;28;20416;-67
2022/04/25 06:40:07;;;;;;;14.77;8.75;;;;;;;-142.75;100.00;77322.31;5028363;28;20510;-68
2022/04/25 06:42:32;;;;;;;12.77;8.47;;;;;;;-142.75;100.00;77351.84;5028536;28;20026;-67
2022/04/25 06:44:58;;;;;;;13.07;7.93;;;;;;;-142.75;100.00;77342.00;5028358;28;20029;-69
2022/04/25 06:47:23;;;;;;;18.60;9.48;;;;;;;-142.75;100.00;77347.91;5028430;28;20044;-64
2022/04/25 06:49:48;;;;;;;17.73;9.73;;;;;;;-142.75;100.00;77349.88;5026816;28;20018;-65
2022/04/25 06:52:15;;;;;;;14.05;8.75;;;;;;;-142.75;100.00;77369.56;5028640;28;20021;-65
2022/04/25 06:54:40;;;;;;;15.07;8.50;;;;;;;-142.75;100.00;77373.50;5028485;28;20490;-67
2022/04/25 06:57:06;;;;;;;15.88;8.52;;;;;;;-142.75;100.00;77375.47;5028747;28;20025;-67
2022/04/25 06:59:31;;;;;;;14.50;8.88;;;;;;;-142.75;100.00;77385.31;5028307;28;20024;-67
2022/04/25 07:01:57;;;;;;;14.13;8.65;;;;;;;-142.75;100.00;77375.47;5028398;28;20057;-67
2022/04/25 07:04:23;;;;;;;15.27;9.18;;;;;;;-142.75;100.00;77371.53;5028396;28;20032;-67
2022/04/25 07:06:48;;;;;;;17.73;9.63;;;;;;;-142.75;100.00;77371.53;5027247;28;20886;-67
2022/04/25 07:09:14;;;;;;;16.17;8.98;;;;;;;-142.75;100.00;77367.59;5027882;28;20025;-67
2022/04/25 07:11:43;;;;;;;15.60;8.75;;;;;;;-142.75;100.00;77367.59;5028207;28;20025;-67
2022/04/25 07:14:09;;;;;;;13.52;8.75;;;;;;;-142.75;100.00;77381.38;5026134;28;20029;-68
2022/04/25 07:16:34;;;;;;;19.27;10.02;;;;;;;-142.75;100.00;77385.31;5025757;28;20030;-67
2022/04/25 07:18:59;;;;;;;15.38;8.32;;;;;;;-142.75;100.00;77381.38;5027518;28;20025;-67
2022/04/25 07:29:36;;;;;;;15.93;9.13;;;;;;;-142.75;100.00;77373.50;5047441;28;20043;-68
2022/04/25 07:32:02;;;;;;;16.60;9.40;;;;;;;-142.75;100.00;77353.81;5047736;28;20112;-67
2022/04/25 07:34:27;;;;;;;16.63;9.38;;;;;;;-142.75;100.00;77347.91;5047422;28;20605;-67
2022/04/25 07:36:53;;;;;;;14.30;8.85;;;;;;;-142.75;100.00;77342.00;5047124;28;20039;-67
2022/04/25 07:39:21;;;;;;;17.88;8.80;;;;;;;-142.75;100.00;77324.28;5046803;28;20028;-66
2022/04/25 07:41:48;;;;;;;14.93;8.73;;;;;;;-142.75;100.00;77308.53;5038355;28;20501;-65
2022/04/25 07:44:14;;;;;;;16.40;9.32;;;;;;;-142.75;100.00;77310.50;5025187;28;20045;-67
2022/04/25 07:46:44;;;;;;;14.07;8.82;;;;;;;-142.75;100.00;77292.78;5027259;28;20538;-67
2022/04/25 07:49:10;;;;;;;16.30;8.20;;;;;;;-142.75;100.00;77290.81;5025798;28;20490;-66
2022/04/25 07:51:42;;;;;;;;;;;;;;;-142.75;100.00;77286.88;5028005;28;20619;-67
2022/04/25 07:54:08;;;;;;;16.70;9.00;;;;;;;-142.75;100.00;77284.91;5027208;28;19920;-66
2022/04/25 07:56:35;;;;;;;15.77;10.23;;;;;;;-142.75;100.00;77288.84;5027462;28;20064;-67
2022/04/25 07:59:00;;;;;;;15.13;8.77;;;;;;;-142.75;100.00;77304.59;5028233;28;20028;-67
2022/04/25 08:01:29;;;;;;;15.52;9.10;;;;;;;-142.75;100.00;77308.53;5041099;28;20070;-69
2022/04/25 08:03:55;;;;;;;12.75;8.32;;;;;;;-142.75;100.00;77306.56;5048992;28;20021;-67
2022/04/25 08:06:21;;;;;;;15.13;9.45;;;;;;;-142.75;100.00;77312.47;5048966;28;20154;-68
2022/04/25 08:08:51;;;;;;;16.25;9.35;;;;;;;-142.75;100.00;77322.31;5048957;28;20509;-69
2022/04/25 08:11:17;;;;;;;14.65;8.82;;;;;;;-142.75;100.00;77326.25;5048702;28;20493;-68
2022/04/25 08:19:13;;;;;;;16.33;8.98;;;;;;;-142.75;100.00;77342.00;5034753;28;20028;-67
2022/04/25 08:21:39;;;;;;;18.48;9.82;;;;;;;-142.75;100.00;77349.88;5048014;28;20074;-68
2022/04/25 08:24:05;;;;;;;16.23;9.65;;;;;;;-142.75;100.00;77367.59;5028688;28;20289;-67
2022/04/25 08:26:30;;;;;;;14.27;9.00;;;;;;;-142.75;100.00;77349.88;5028793;28;20108;-68
2022/04/25 08:28:56;;;;;;;15.38;10.10;;;;;;;-142.75;100.00;77353.81;5028602;28;20139;-67
2022/04/25 08:31:21;;;;;;;16.75;9.45;;;;;;;-142.75;100.00;77355.78;5028806;28;20021;-67
2022/04/25 08:33:48;;;;;;;17.95;10.43;;;;;;;-142.75;100.00;77351.84;5027666;28;20391;-69
2022/04/25 08:36:14;;;;;;;19.38;10.63;;;;;;;-142.75;100.00;77336.09;5034159;28;20025;-68
2022/04/25 08:38:43;;;;;;;;;;;;;;;-142.75;100.00;77345.94;5048875;28;20021;-67
2022/04/25 08:41:10;;;;;;;18.13;9.80;;;;;;;-142.75;100.00;77332.16;5047322;28;20333;-67
2022/04/25 08:43:38;;;;;;;19.90;10.05;;;;;;;-142.75;100.00;77320.34;5047348;28;20021;-67
2022/04/25 08:46:05;;;;;;;17.25;9.38;;;;;;;-142.75;100.00;77312.47;5048250;28;20025;-67
2022/04/25 08:48:31;;;;;;;14.70;9.70;;;;;;;-142.75;100.00;77314.44;5048247;28;20087;-67
2022/04/25 08:50:58;;;;;;;16.05;8.82;;;;;;;-142.75;100.00;77300.66;5049437;28;20028;-67
2022/04/25 08:53:23;;;;;;;15.23;8.57;;;;;;;-142.75;100.00;77294.75;5046097;28;20033;-67
2022/04/25 08:55:49;;;;;;;15.70;9.20;;;;;;;-142.75;100.00;77279.00;5039219;28;20032;-66
2022/04/25 08:58:15;;;;;;;17.20;9.73;;;;;;;-142.75;100.00;77280.97;5052027;28;20032;-66
2022/04/25 09:00:41;;;;;;;17.30;9.77;;;;;;;-142.75;100.00;77275.06;5051987;28;20025;-67
2022/04/25 09:03:07;;;;;;;14.10;8.80;;;;;;;-142.75;100.00;77267.19;5052107;28;20055;-67
2022/04/25 09:05:35;;;;;;;;;;;;;;;-142.75;100.00;77282.94;5047629;28;20029;-67
2022/04/25 09:08:00;;;;;;;14.25;8.48;;;;;;;-142.75;100.00;77284.91;5032681;28;19952;-68
2022/04/25 09:10:28;;;;;;;15.07;8.75;;;;;;;-142.75;100.00;77282.94;5040867;28;20056;-67
2022/04/25 09:12:54;;;;;;;14.77;8.23;;;;;;;-142.75;100.00;77279.00;5052318;28;20043;-68
2022/04/25 09:15:22;;;;;;;13.13;8.13;;;;;;;-142.75;100.00;77269.16;5051631;28;20023;-69
2022/04/25 09:17:47;;;;;;;15.70;8.45;;;;;;;-142.75;100.00;77259.31;5043794;28;20056;-69
2022/04/25 09:20:13;;;;;;;17.35;8.77;;;;;;;-142.75;100.00;77241.59;5030590;28;20105;-67
2022/04/25 09:22:40;;;;;;;15.35;8.20;;;;;;;-142.75;100.00;77251.44;5036888;28;20028;-67
2022/04/25 09:25:10;;;;;;;15.25;8.85;;;;;;;-142.75;100.00;77235.69;5034386;28;20033;-67
2022/04/25 09:27:37;;;;;;;18.48;8.98;;;;;;;-142.75;100.00;77221.91;5032158;28;20131;-68
2022/04/25 09:30:18;;;;;;;16.98;8.55;;;;;;;-142.75;100.00;77225.84;5032463;28;20032;-68
2022/04/25 09:32:45;;;;;;;14.77;8.30;;;;;;;-142.75;100.00;77227.81;5038406;28;20039;-67
2022/04/25 09:35:28;;;;;;;14.43;8.60;;;;;;;-142.75;100.00;77259.31;5051488;28;20028;-67
2022/04/25 09:37:54;;;;;;;14.85;9.32;;;;;;;-142.75;100.00;77239.63;5051753;28;20116;-68
2022/04/25 09:40:22;;;;;;;14.93;8.23;;;;;;;-142.75;100.00;77229.78;5045287;28;20025;-67
2022/04/25 09:42:48;;;;;;;15.05;8.90;;;;;;;-142.75;100.00;77243.56;5032884;28;20060;-67
2022/04/25 09:45:15;;;;;;;12.65;8.10;;;;;;;-142.75;100.00;77239.63;5031199;28;20065;-67
2022/04/25 09:47:41;;;;;;;18.60;9.25;;;;;;;-142.75;100.00;77247.50;5037057;28;20029;-67
2022/04/25 09:50:09;;;;;;;15.45;9.07;;;;;;;-142.75;100.00;77275.06;5050627;28;20056;-67
2022/04/25 09:52:59;;;;;;;14.40;8.70;;;;;;;-142.75;100.00;77267.19;5051606;28;20120;-68
2022/04/25 09:55:30;;;;;;;15.60;9.25;;;;;;;-142.75;100.00;77288.84;5051304;28;20028;-66
2022/04/25 09:57:56;;;;;;;18.02;9.07;;;;;;;-142.75;100.00;77310.50;5051495;28;20083;-67
2022/04/25 10:00:33;;;;;;;15.23;8.77;;;;;;;-142.75;100.00;77310.50;5051013;28;20028;-67
2022/04/25 10:03:02;;;;;;;13.10;8.02;;;;;;;-142.75;100.00;77326.25;5050697;28;20090;-67
2022/04/25 10:05:41;;;;;;;16.08;9.02;;;;;;;-142.75;100.00;77312.47;5051039;28;20032;-68
2022/04/25 10:08:12;;;;;;;13.98;8.68;;;;;;;-142.75;100.00;77322.31;5049161;28;20040;-68
2022/04/25 10:10:50;;;;;;;15.50;9.23;;;;;;;-142.75;100.00;77322.31;5046278;28;20025;-68
2022/04/25 10:13:16;;;;;;;19.75;9.10;;;;;;;-142.75;100.00;77324.28;5030785;28;20025;-68
2022/04/25 10:15:43;;;;;;;15.95;9.23;;;;;;;-142.75;100.00;77338.06;5037060;28;20044;-69
2022/04/25 10:18:09;;;;;;;15.57;8.73;;;;;;;-142.75;100.00;77359.72;5048508;28;20108;-67
2022/04/25 10:20:36;;;;;;;15.52;9.00;;;;;;;-142.75;100.00;77357.75;5029557;28;20029;-67
2022/04/25 10:23:06;;;;;;;14.95;8.80;;;;;;;-142.75;100.00;77377.44;5031125;28;20029;-67
2022/04/25 10:25:32;;;;;;;13.48;8.70;;;;;;;-142.75;100.00;77385.31;5048575;28;20032;-67
2022/04/25 10:28:01;;;;;;;16.20;9.35;;;;;;;-142.75;100.00;77408.94;5049897;28;20386;-67
2022/04/25 10:30:34;;;;;;;17.05;8.68;;;;;;;-142.75;100.00;77408.94;5050436;28;20025;-66
2022/04/25 10:33:15;;;;;;;17.85;9.88;;;;;;;-142.75;100.00;77397.13;5049465;28;20021;-68
2022/04/25 10:35:41;;;;;;;17.35;10.25;;;;;;;-142.75;100.00;77395.16;5045389;28;20071;-68
2022/04/25 10:38:47;;;;;;;15.45;9.38;;;;;;;-142.75;100.00;77397.13;5050841;28;20724;-67
2022/04/25 10:44:35;;;;;;;14.55;8.85;;;;;;;-142.75;100.00;77387.28;5030117;28;20095;-67
2022/04/25 10:47:07;;;;;;;14.18;9.43;;;;;;;-142.75;100.00;77383.34;5023567;28;20136;-69
2022/04/25 10:49:32;;;;;;;18.98;11.43;;;;;;;-142.75;100.00;77389.25;5048705;28;20044;-68
2022/04/25 10:51:58;;;;;;;16.87;10.07;;;;;;;-142.75;100.00;77393.19;5032954;28;20022;-67
2022/04/25 10:54:27;;;;;;;16.65;10.38;;;;;;;-142.75;100.00;77395.16;5030327;28;20079;-67
2022/04/25 10:57:08;;;;;;;17.83;10.00;;;;;;;-142.75;100.00;77399.09;5028719;28;20076;-67
2022/04/25 10:59:33;;;;;;;17.45;10.43;;;;;;;-142.75;100.00;77397.13;5029776;28;20028;-67
2022/04/25 11:01:59;;;;;;;20.13;10.13;;;;;;;-142.75;100.00;77424.69;5029086;28;20092;-68
2022/04/25 11:04:25;;;;;;;20.60;10.52;;;;;;;-142.75;100.00;77432.56;5042458;28;20064;-67
2022/04/25 11:07:20;;;;;;;22.15;12.20;;;;;;;-142.75;100.00;77436.50;5048256;28;20386;-68
2022/04/25 11:09:45;;;;;;;17.63;9.27;;;;;;;-142.75;100.00;77448.34;5039162;28;20149;-68
2022/04/25 11:12:10;;;;;;;14.60;9.77;;;;;;;-142.75;100.00;77454.25;5036832;28;20614;-67
2022/04/25 11:14:36;;;;;;;23.35;12.00;;;;;;;-142.75;100.00;77446.34;5047589;28;20027;-68
2022/04/25 11:17:11;;;;;;;18.75;10.57;;;;;;;-142.75;100.00;77424.69;5049778;28;20106;-67
2022/04/25 11:19:45;;;;;;;20.35;10.52;;;;;;;-142.75;100.00;77436.50;5042916;28;20022;-67
2022/04/25 11:22:47;;;;;;;23.85;11.60;;;;;;;-142.75;100.00;77440.44;5028635;28;20120;-67
2022/04/25 11:25:35;;;;;;;22.50;11.45;;;;;;;-142.75;100.00;77468.03;5029568;28;20044;-69
2022/04/25 11:28:05;;;;;;;21.02;10.68;;;;;;;-142.75;100.00;77462.13;5030922;28;20029;-68
2022/04/25 11:30:30;;;;;;;18.20;9.82;;;;;;;-142.75;100.00;77460.13;5034723;28;20026;-67
2022/04/25 11:33:04;;;;;;;19.60;10.55;;;;;;;-142.75;100.00;77444.38;5035446;28;20033;-67
2022/04/25 11:35:30;;;;;;;20.02;11.40;;;;;;;-142.75;100.00;77440.44;5047067;28;20040;-67